Time;durP1;ratioP1;P1;durP2;ratioP2;P2;SDS_P1;SDS_P2;PMS_P1;PMS_P2;Temp;Humidity;BMP_temperature;BMP_pressure;BME280_temperature;BME280_humidity;BME280_pressure;Samples;Min_cycle;Max_cycle;Signal;HPM_P1;HPM_P2
2023/05/08 00:02:33;;;;;;;6.40;3.63;;;;;;;;;;5012477;28;20555;-80
2023/05/08 00:05:19;;;;;;;6.63;4.00;;;;;;;;;;5013113;28;20046;-78
2023/05/08 00:08:04;;;;;;;7.45;4.22;;;;;;;;;;5012633;28;20042;-79
2023/05/08 00:10:50;;;;;;;7.95;4.20;;;;;;;;;;5013002;28;20042;-79
2023/05/08 00:13:36;;;;;;;8.00;4.70;;;;;;;;;;5017688;28;20054;-80
2023/05/08 00:16:21;;;;;;;10.50;4.88;;;;;;;;;;5012679;28;20054;-80
2023/05/08 00:19:07;;;;;;;6.80;4.05;;;;;;;;;;5013029;28;20046;-80
2023/05/08 00:21:52;;;;;;;7.50;4.60;;;;;;;;;;5012643;28;20042;-80
2023/05/08 00:24:47;;;;;;;6.45;4.35;;;;;;;;;;5015086;28;20050;-80
2023/05/08 00:27:34;;;;;;;7.95;4.65;;;;;;;;;;5016628;28;20057;-80
2023/05/08 00:30:20;;;;;;;6.35;4.35;;;;;;;;;;5016346;28;20484;-80
2023/05/08 00:33:05;;;;;;;6.30;4.15;;;;;;;;;;5022202;28;20395;-80
2023/05/08 00:36:07;;;;;;;28.40;12.65;;;;;;;;;;5022108;28;20038;-80
2023/05/08 00:38:52;;;;;;;42.92;16.60;;;;;;;;;;5016252;28;20057;-79
2023/05/08 00:41:41;;;;;;;47.85;17.38;;;;;;;;;;5016386;28;20049;-80
2023/05/08 00:44:26;;;;;;;28.83;12.43;;;;;;;;;;5015565;28;20038;-81
2023/05/08 00:47:15;;;;;;;16.88;7.80;;;;;;;;;;5015376;28;20054;-80
2023/05/08 00:50:00;;;;;;;16.27;7.60;;;;;;;;;;5007839;28;20046;-81
2023/05/08 00:52:50;;;;;;;10.23;6.10;;;;;;;;;;5015089;28;20046;-80
2023/05/08 00:55:40;;;;;;;11.52;5.45;;;;;;;;;;5016173;28;20053;-80
2023/05/08 00:58:31;;;;;;;7.63;4.53;;;;;;;;;;5015664;28;20405;-79
2023/05/08 01:01:23;;;;;;;8.80;4.63;;;;;;;;;;5021533;28;20046;-80
2023/05/08 01:04:08;;;;;;;5.25;3.95;;;;;;;;;;5015529;28;20042;-80
2023/05/08 01:06:54;;;;;;;6.82;4.10;;;;;;;;;;5015699;28;20042;-80
2023/05/08 01:09:46;;;;;;;12.30;4.57;;;;;;;;;;5014982;28;20045;-80
2023/05/08 01:12:53;;;;;;;7.45;4.32;;;;;;;;;;5015383;28;20046;-80
2023/05/08 01:15:50;;;;;;;6.95;4.20;;;;;;;;;;5020417;28;20049;-80
2023/05/08 01:19:00;;;;;;;10.13;4.07;;;;;;;;;;5013812;28;20046;-80
2023/05/08 01:22:24;;;;;;;6.20;3.75;;;;;;;;;;5019607;28;20037;-80
2023/05/08 01:25:37;;;;;;;5.45;3.72;;;;;;;;;;4987763;28;20045;-80
2023/05/08 01:28:28;;;;;;;5.53;3.70;;;;;;;;;;5012775;28;20049;-78
2023/05/08 01:31:27;;;;;;;4.82;3.55;;;;;;;;;;5013067;28;20053;-79
2023/05/08 01:34:18;;;;;;;7.32;3.65;;;;;;;;;;5013189;28;20396;-79
2023/05/08 01:37:11;;;;;;;6.03;3.70;;;;;;;;;;5012397;28;20041;-79
2023/05/08 01:40:18;;;;;;;6.43;3.63;;;;;;;;;;5012407;28;20049;-79
2023/05/08 01:43:18;;;;;;;5.75;4.03;;;;;;;;;;5013000;28;20042;-79
2023/05/08 01:46:12;;;;;;;5.75;3.53;;;;;;;;;;5013228;28;20050;-79
2023/05/08 01:49:21;;;;;;;6.90;3.73;;;;;;;;;;5012453;28;20042;-80
2023/05/08 01:52:12;;;;;;;4.50;3.55;;;;;;;;;;5018265;28;20050;-80
2023/05/08 01:55:09;;;;;;;7.45;4.03;;;;;;;;;;5012449;28;20042;-79
2023/05/08 01:57:58;;;;;;;9.98;4.45;;;;;;;;;;5013106;28;20046;-79
2023/05/08 02:00:44;;;;;;;11.52;4.18;;;;;;;;;;5018144;28;20050;-79
2023/05/08 02:03:32;;;;;;;10.40;4.68;;;;;;;;;;5017762;28;20049;-80
2023/05/08 02:06:20;;;;;;;8.77;4.45;;;;;;;;;;5019147;28;20038;-79
2023/05/08 02:09:08;;;;;;;8.20;5.10;;;;;;;;;;5018347;28;20046;-79
2023/05/08 02:11:55;;;;;;;7.05;5.43;;;;;;;;;;5012742;28;20410;-79
2023/05/08 02:14:43;;;;;;;11.20;5.10;;;;;;;;;;5012395;28;20046;-79
2023/05/08 02:17:30;;;;;;;10.98;5.90;;;;;;;;;;5017307;28;20038;-79
2023/05/08 02:20:17;;;;;;;10.85;5.47;;;;;;;;;;5017350;28;20050;-78
2023/05/08 02:23:03;;;;;;;10.00;5.40;;;;;;;;;;5012190;28;20049;-79
2023/05/08 02:25:50;;;;;;;10.02;5.43;;;;;;;;;;5017206;28;20046;-79
2023/05/08 02:28:35;;;;;;;7.53;5.43;;;;;;;;;;5011304;28;20045;-79
2023/05/08 02:31:22;;;;;;;9.20;5.65;;;;;;;;;;5011904;28;20053;-80
2023/05/08 02:34:09;;;;;;;13.18;6.63;;;;;;;;;;5011879;28;20050;-79
2023/05/08 02:36:55;;;;;;;14.93;8.68;;;;;;;;;;5017035;28;20041;-79
2023/05/08 02:39:42;;;;;;;12.73;7.13;;;;;;;;;;5016815;28;20045;-79
2023/05/08 02:42:29;;;;;;;10.15;6.75;;;;;;;;;;5011413;28;20484;-80
2023/05/08 02:45:15;;;;;;;10.18;6.43;;;;;;;;;;5014708;28;20054;-80
2023/05/08 02:48:12;;;;;;;12.57;6.43;;;;;;;;;;5017030;28;20041;-81
2023/05/08 02:51:24;;;;;;;8.07;5.72;;;;;;;;;;5016974;28;20483;-80
2023/05/08 02:54:22;;;;;;;12.30;6.32;;;;;;;;;;5016892;28;20046;-80
2023/05/08 02:57:34;;;;;;;9.48;6.32;;;;;;;;;;5011322;28;20046;-80
2023/05/08 03:00:25;;;;;;;7.00;5.45;;;;;;;;;;5011347;28;20049;-80
2023/05/08 03:03:30;;;;;;;10.75;6.07;;;;;;;;;;5016491;28;20046;-80
2023/05/08 03:06:21;;;;;;;9.23;5.70;;;;;;;;;;5017025;28;20038;-80
2023/05/08 03:09:17;;;;;;;9.00;5.95;;;;;;;;;;5017044;28;20038;-80
2023/05/08 03:12:08;;;;;;;7.22;5.38;;;;;;;;;;5017156;28;20057;-80
2023/05/08 03:15:03;;;;;;;7.72;5.63;;;;;;;;;;5017178;28;20054;-80
2023/05/08 03:17:53;;;;;;;7.45;5.43;;;;;;;;;;5017539;28;20042;-80
2023/05/08 03:20:43;;;;;;;8.25;5.60;;;;;;;;;;5011947;28;20049;-80
2023/05/08 03:23:32;;;;;;;9.15;5.43;;;;;;;;;;5017613;28;20049;-80
2023/05/08 03:26:18;;;;;;;7.07;5.55;;;;;;;;;;5017132;28;20046;-80
2023/05/08 03:29:05;;;;;;;7.32;5.20;;;;;;;;;;5016834;28;20046;-80
2023/05/08 03:31:53;;;;;;;10.05;5.70;;;;;;;;;;5017383;28;20038;-80
2023/05/08 03:34:39;;;;;;;10.65;6.25;;;;;;;;;;5017518;28;20042;-80
2023/05/08 03:37:28;;;;;;;10.27;6.63;;;;;;;;;;5017232;28;20476;-80
2023/05/08 03:40:13;;;;;;;9.65;6.40;;;;;;;;;;5017244;28;20042;-80
2023/05/08 03:43:00;;;;;;;11.40;6.35;;;;;;;;;;5017048;28;20041;-80
2023/05/08 03:45:46;;;;;;;11.32;6.07;;;;;;;;;;5011445;28;20408;-79
2023/05/08 03:48:33;;;;;;;10.88;6.68;;;;;;;;;;5011654;28;20046;-80
2023/05/08 03:51:20;;;;;;;11.77;6.50;;;;;;;;;;5017357;28;20504;-79
2023/05/08 03:54:06;;;;;;;10.27;6.63;;;;;;;;;;5017132;28;20042;-79
2023/05/08 03:56:53;;;;;;;14.63;8.05;;;;;;;;;;5017035;28;20049;-79
2023/05/08 03:59:45;;;;;;;19.38;9.00;;;;;;;;;;5019592;28;20411;-80
2023/05/08 04:02:45;;;;;;;17.00;9.13;;;;;;;;;;5020904;28;20396;-80
2023/05/08 04:05:38;;;;;;;16.15;8.68;;;;;;;;;;5021108;28;20054;-80
2023/05/08 04:08:29;;;;;;;15.20;9.00;;;;;;;;;;5020735;28;20038;-80
2023/05/08 04:11:24;;;;;;;14.82;8.85;;;;;;;;;;5020952;28;20053;-80
2023/05/08 04:14:15;;;;;;;18.77;9.30;;;;;;;;;;5020908;28;20046;-80
2023/05/08 04:17:04;;;;;;;19.52;9.00;;;;;;;;;;5020663;28;20046;-78
2023/05/08 04:19:57;;;;;;;12.20;7.47;;;;;;;;;;5021063;28;20050;-79
2023/05/08 04:22:45;;;;;;;9.70;6.95;;;;;;;;;;5020197;28;20038;-78
2023/05/08 04:25:34;;;;;;;9.43;6.95;;;;;;;;;;5020634;28;20046;-79
2023/05/08 04:28:21;;;;;;;9.27;6.47;;;;;;;;;;5014867;28;20045;-79
2023/05/08 04:31:08;;;;;;;11.52;7.10;;;;;;;;;;5020426;28;20050;-78
2023/05/08 04:33:54;;;;;;;12.88;7.65;;;;;;;;;;5015153;28;20050;-79
2023/05/08 04:36:39;;;;;;;11.77;7.55;;;;;;;;;;5020180;28;20050;-78
2023/05/08 04:39:25;;;;;;;10.88;6.95;;;;;;;;;;5020129;28;20050;-79
2023/05/08 04:42:11;;;;;;;11.27;6.80;;;;;;;;;;5020262;28;20050;-79
2023/05/08 04:44:57;;;;;;;8.75;5.85;;;;;;;;;;5018302;28;20058;-79
2023/05/08 04:47:42;;;;;;;8.57;5.97;;;;;;;;;;5020132;28;20042;-79
2023/05/08 04:50:28;;;;;;;7.60;5.68;;;;;;;;;;5020214;28;20038;-79
2023/05/08 04:53:14;;;;;;;13.10;5.63;;;;;;;;;;5020066;28;20046;-79
2023/05/08 04:55:59;;;;;;;8.25;5.72;;;;;;;;;;5020257;28;20038;-78
2023/05/08 04:58:46;;;;;;;12.35;5.90;;;;;;;;;;5019822;28;20495;-79
2023/05/08 05:01:31;;;;;;;8.57;5.35;;;;;;;;;;5019928;28;20046;-79
2023/05/08 05:04:17;;;;;;;7.28;5.20;;;;;;;;;;5019541;28;20037;-80
2023/05/08 05:07:03;;;;;;;7.78;5.30;;;;;;;;;;5019248;28;20046;-80
2023/05/08 05:09:48;;;;;;;12.30;6.28;;;;;;;;;;5013148;28;20045;-80
2023/05/08 05:12:34;;;;;;;6.43;4.80;;;;;;;;;;5013974;28;20404;-80
2023/05/08 05:15:21;;;;;;;6.35;4.65;;;;;;;;;;5019723;28;20041;-79
2023/05/08 05:18:07;;;;;;;6.63;4.53;;;;;;;;;;5019566;28;20041;-80
2023/05/08 05:20:52;;;;;;;9.02;4.03;;;;;;;;;;5019127;28;20050;-80
2023/05/08 05:23:38;;;;;;;8.10;5.18;;;;;;;;;;5019236;28;20041;-80
2023/05/08 05:26:23;;;;;;;7.38;4.75;;;;;;;;;;5019561;28;20054;-81
2023/05/08 05:29:09;;;;;;;7.30;4.97;;;;;;;;;;5019349;28;20504;-80
2023/05/08 05:31:55;;;;;;;9.65;4.65;;;;;;;;;;5019447;28;20045;-80
2023/05/08 05:34:40;;;;;;;7.32;4.70;;;;;;;;;;5005213;28;20053;-80
2023/05/08 05:37:26;;;;;;;7.25;5.18;;;;;;;;;;5018993;28;20057;-80
2023/05/08 05:40:13;;;;;;;9.52;5.05;;;;;;;;;;5019425;28;20484;-80
2023/05/08 05:42:58;;;;;;;7.00;5.43;;;;;;;;;;5013212;28;20423;-79
2023/05/08 05:45:44;;;;;;;7.80;5.32;;;;;;;;;;5014881;28;20491;-80
2023/05/08 05:48:29;;;;;;;11.65;5.60;;;;;;;;;;5013958;28;20046;-80
2023/05/08 05:51:15;;;;;;;8.55;5.25;;;;;;;;;;5013318;28;20049;-79
2023/05/08 05:54:00;;;;;;;10.13;5.90;;;;;;;;;;5021133;28;20053;-80
2023/05/08 05:56:45;;;;;;;7.68;6.05;;;;;;;;;;5019666;28;20045;-81
2023/05/08 05:59:30;;;;;;;8.77;4.93;;;;;;;;;;5012788;28;20042;-80
2023/05/08 06:02:17;;;;;;;9.70;6.00;;;;;;;;;;5019715;28;20049;-80
2023/05/08 06:05:03;;;;;;;8.85;6.07;;;;;;;;;;5013645;28;20480;-79
2023/05/08 06:07:49;;;;;;;13.85;5.85;;;;;;;;;;5015642;28;20042;-80
2023/05/08 06:10:35;;;;;;;9.63;6.78;;;;;;;;;;5016061;28;20487;-80
2023/05/08 06:13:21;;;;;;;15.02;7.18;;;;;;;;;;5019439;28;20057;-79
2023/05/08 06:16:06;;;;;;;10.50;6.75;;;;;;;;;;5017958;28;20519;-79
2023/05/08 06:18:53;;;;;;;7.68;6.18;;;;;;;;;;5017286;28;20058;-79
2023/05/08 06:21:38;;;;;;;15.68;10.18;;;;;;;;;;5019414;28;20054;-81
2023/05/08 06:24:24;;;;;;;16.80;10.90;;;;;;;;;;5017975;28;20488;-80
2023/05/08 06:27:10;;;;;;;21.40;13.50;;;;;;;;;;5014507;28;20054;-80
2023/05/08 06:29:56;;;;;;;11.73;6.75;;;;;;;;;;5014281;28;20049;-80
2023/05/08 06:32:41;;;;;;;24.08;14.30;;;;;;;;;;5019743;28;20054;-79
2023/05/08 06:35:27;;;;;;;16.98;13.45;;;;;;;;;;5013604;28;20391;-80
2023/05/08 06:38:13;;;;;;;21.60;14.18;;;;;;;;;;5014055;28;20045;-79
2023/05/08 06:40:58;;;;;;;19.52;12.02;;;;;;;;;;5013867;28;20046;-80
2023/05/08 06:43:44;;;;;;;16.27;9.40;;;;;;;;;;5013811;28;20046;-79
2023/05/08 06:46:29;;;;;;;18.48;11.93;;;;;;;;;;5013474;28;20046;-80
2023/05/08 06:49:15;;;;;;;13.55;9.98;;;;;;;;;;5014003;28;20045;-79
2023/05/08 06:52:01;;;;;;;17.20;11.05;;;;;;;;;;5014275;28;20046;-79
2023/05/08 06:54:46;;;;;;;27.38;16.17;;;;;;;;;;5014058;28;20507;-79
2023/05/08 06:57:32;;;;;;;22.27;14.73;;;;;;;;;;5014100;28;20038;-79
2023/05/08 07:00:17;;;;;;;30.17;18.02;;;;;;;;;;5014338;28;20396;-80
2023/05/08 07:03:03;;;;;;;19.02;9.85;;;;;;;;;;5013903;28;20046;-81
2023/05/08 07:05:48;;;;;;;23.80;17.35;;;;;;;;;;5013977;28;20034;-80
2023/05/08 07:08:35;;;;;;;27.48;12.52;;;;;;;;;;5013919;28;20042;-80
2023/05/08 07:11:20;;;;;;;29.60;19.13;;;;;;;;;;5014080;28;20042;-80
2023/05/08 07:14:05;;;;;;;32.88;19.95;;;;;;;;;;5014155;28;20046;-80
2023/05/08 07:16:51;;;;;;;29.08;17.70;;;;;;;;;;5013786;28;20392;-79
2023/05/08 07:19:37;;;;;;;32.50;19.75;;;;;;;;;;5013907;28;20050;-80
2023/05/08 07:22:22;;;;;;;28.60;20.15;;;;;;;;;;5013931;28;20042;-81
2023/05/08 07:25:08;;;;;;;28.38;18.83;;;;;;;;;;5013456;28;20054;-80
2023/05/08 07:27:53;;;;;;;32.72;20.20;;;;;;;;;;5013726;28;20480;-79
2023/05/08 07:30:39;;;;;;;42.20;22.77;;;;;;;;;;5013531;28;20042;-80
2023/05/08 07:33:24;;;;;;;35.20;21.75;;;;;;;;;;5014459;28;20045;-80
2023/05/08 07:36:10;;;;;;;32.45;21.35;;;;;;;;;;5017692;28;20046;-80
2023/05/08 07:38:56;;;;;;;30.10;20.98;;;;;;;;;;5017895;28;20153;-79
2023/05/08 07:41:41;;;;;;;37.67;22.95;;;;;;;;;;5017678;28;20050;-80
2023/05/08 07:44:27;;;;;;;31.73;21.67;;;;;;;;;;5017137;28;20042;-81
2023/05/08 07:47:12;;;;;;;28.92;20.45;;;;;;;;;;5018122;28;20403;-80
2023/05/08 07:49:58;;;;;;;31.60;21.55;;;;;;;;;;5017371;28;20046;-80
2023/05/08 07:52:44;;;;;;;30.23;20.85;;;;;;;;;;5017676;28;20491;-80
2023/05/08 07:55:29;;;;;;;26.50;14.80;;;;;;;;;;5017294;28;20049;-79
2023/05/08 07:58:15;;;;;;;29.55;18.88;;;;;;;;;;5017284;28;20404;-79
2023/05/08 08:01:00;;;;;;;34.33;19.50;;;;;;;;;;5017576;28;20038;-80
2023/05/08 08:03:46;;;;;;;38.85;21.17;;;;;;;;;;5016972;28;20034;-80
2023/05/08 08:06:31;;;;;;;37.72;20.23;;;;;;;;;;5017113;28;20046;-80
2023/05/08 08:09:17;;;;;;;31.52;19.05;;;;;;;;;;5017345;28;20061;-80
2023/05/08 08:12:03;;;;;;;40.20;22.40;;;;;;;;;;5016974;28;20045;-81
2023/05/08 08:14:48;;;;;;;46.58;24.88;;;;;;;;;;5016982;28;20050;-81
2023/05/08 08:17:34;;;;;;;34.85;22.83;;;;;;;;;;5023358;28;20050;-80
2023/05/08 08:20:19;;;;;;;29.48;18.83;;;;;;;;;;5016899;28;20046;-81
2023/05/08 08:23:05;;;;;;;34.67;21.00;;;;;;;;;;5017108;28;20041;-80
2023/05/08 08:25:52;;;;;;;35.15;21.77;;;;;;;;;;5016657;28;20046;-81
2023/05/08 08:28:37;;;;;;;35.85;20.88;;;;;;;;;;5016738;28;20407;-79
2023/05/08 08:31:23;;;;;;;31.90;19.48;;;;;;;;;;5016692;28;20046;-79
2023/05/08 08:34:08;;;;;;;31.33;19.50;;;;;;;;;;5016922;28;20045;-79
2023/05/08 08:36:54;;;;;;;34.97;21.33;;;;;;;;;;5016665;28;20042;-76
2023/05/08 08:39:39;;;;;;;48.83;25.13;;;;;;;;;;5015648;28;20053;-77
2023/05/08 08:42:25;;;;;;;51.53;27.15;;;;;;;;;;5016479;28;20396;-77
2023/05/08 08:45:11;;;;;;;43.33;26.08;;;;;;;;;;5015811;28;20042;-76
2023/05/08 08:48:00;;;;;;;34.92;22.83;;;;;;;;;;5016442;28;20058;-77
2023/05/08 08:50:50;;;;;;;32.92;21.88;;;;;;;;;;5016307;28;20050;-73
2023/05/08 08:53:43;;;;;;;36.15;22.20;;;;;;;;;;5016169;28;20475;-75
2023/05/08 08:56:31;;;;;;;40.05;23.45;;;;;;;;;;5016240;28;20038;-73
2023/05/08 08:59:17;;;;;;;37.55;23.38;;;;;;;;;;5022992;28;20041;-75
2023/05/08 09:02:08;;;;;;;31.52;21.73;;;;;;;;;;5015817;28;20038;-75
2023/05/08 09:04:53;;;;;;;29.67;19.30;;;;;;;;;;5015790;28;20411;-75
2023/05/08 09:07:40;;;;;;;32.22;19.90;;;;;;;;;;5015948;28;20046;-77
2023/05/08 09:10:26;;;;;;;24.38;16.88;;;;;;;;;;5015983;28;20483;-76
2023/05/08 09:13:11;;;;;;;26.52;16.73;;;;;;;;;;5016660;28;20041;-77
2023/05/08 09:15:58;;;;;;;25.67;17.73;;;;;;;;;;5015487;28;20512;-77
2023/05/08 09:18:44;;;;;;;28.52;18.70;;;;;;;;;;5017772;28;20491;-79
2023/05/08 09:21:29;;;;;;;46.53;29.73;;;;;;;;;;5016141;28;20042;-74
2023/05/08 09:24:15;;;;;;;32.33;20.33;;;;;;;;;;5022681;28;20045;-74
2023/05/08 09:27:00;;;;;;;109.88;84.90;;;;;;;;;;5015896;28;20045;-74
2023/05/08 09:30:00;;;;;;;62.90;43.10;;;;;;;;;;5021020;28;20046;-77
2023/05/08 09:32:45;;;;;;;33.72;18.77;;;;;;;;;;5015564;28;20049;-76
2023/05/08 09:35:35;;;;;;;57.75;27.25;;;;;;;;;;5014372;28;20038;-75
2023/05/08 09:38:37;;;;;;;257.63;178.20;;;;;;;;;;5015688;28;20045;-77
2023/05/08 09:41:23;;;;;;;189.05;112.85;;;;;;;;;;5015700;28;20053;-77
2023/05/08 09:44:08;;;;;;;99.93;46.72;;;;;;;;;;5015567;28;20053;-77
2023/05/08 09:47:15;;;;;;;334.30;226.73;;;;;;;;;;5015605;28;20053;-77
2023/05/08 09:50:08;;;;;;;236.80;184.88;;;;;;;;;;5015139;28;20041;-77
2023/05/08 09:52:52;;;;;;;80.20;55.13;;;;;;;;;;5015683;28;20045;-77
2023/05/08 09:55:47;;;;;;;18.33;12.57;;;;;;;;;;5014630;28;20046;-76
2023/05/08 09:58:43;;;;;;;12.18;9.40;;;;;;;;;;5015139;28;20403;-76
2023/05/08 10:01:35;;;;;;;17.40;13.80;;;;;;;;;;5021603;28;20037;-76
2023/05/08 10:04:35;;;;;;;15.57;10.65;;;;;;;;;;5014975;28;20042;-76
2023/05/08 10:07:37;;;;;;;20.02;14.35;;;;;;;;;;5015006;28;20046;-75
2023/05/08 10:10:25;;;;;;;23.40;15.07;;;;;;;;;;5014732;28;20046;-76
2023/05/08 10:13:11;;;;;;;23.23;15.95;;;;;;;;;;5015065;28;20038;-75
2023/05/08 10:15:56;;;;;;;15.65;12.23;;;;;;;;;;5015180;28;20042;-77
2023/05/08 10:18:48;;;;;;;23.30;14.02;;;;;;;;;;5014705;28;20042;-79
2023/05/08 10:21:36;;;;;;;20.38;14.70;;;;;;;;;;5014730;28;20046;-81
2023/05/08 10:24:32;;;;;;;19.35;14.13;;;;;;;;;;5014747;28;20050;-77
2023/05/08 10:27:44;;;;;;;17.83;12.45;;;;;;;;;;5014856;28;20053;-78
2023/05/08 10:30:33;;;;;;;18.13;14.55;;;;;;;;;;5014534;28;20049;-72
2023/05/08 10:33:20;;;;;;;18.35;12.32;;;;;;;;;;5021294;28;20049;-78
2023/05/08 10:36:06;;;;;;;18.00;12.88;;;;;;;;;;5014905;28;20480;-79
2023/05/08 10:38:52;;;;;;;15.23;12.23;;;;;;;;;;5014595;28;20042;-80
2023/05/08 10:41:38;;;;;;;19.60;13.57;;;;;;;;;;5014668;28;20479;-79
2023/05/08 10:44:26;;;;;;;22.23;14.90;;;;;;;;;;5014320;28;20049;-80
2023/05/08 10:47:45;;;;;;;13.57;9.20;;;;;;;;;;5014585;28;20045;-80
2023/05/08 10:50:55;;;;;;;15.25;10.82;;;;;;;;;;5014210;28;20042;-78
2023/05/08 10:54:01;;;;;;;14.82;10.07;;;;;;;;;;5013190;28;20038;-80
2023/05/08 10:56:47;;;;;;;14.50;11.25;;;;;;;;;;5014413;28;20038;-77
2023/05/08 10:59:35;;;;;;;12.77;9.75;;;;;;;;;;5014232;28;20054;-85
2023/05/08 11:02:28;;;;;;;14.00;9.65;;;;;;;;;;5014170;28;20034;-81
2023/05/08 11:05:15;;;;;;;13.65;10.80;;;;;;;;;;5013904;28;20395;-83
2023/05/08 11:08:00;;;;;;;12.90;8.35;;;;;;;;;;5013394;28;20392;-82
2023/05/08 11:11:00;;;;;;;6.82;5.00;;;;;;;;;;5014316;28;20042;-80
2023/05/08 11:14:11;;;;;;;9.27;6.25;;;;;;;;;;5013747;28;20038;-82
2023/05/08 11:16:56;;;;;;;2.83;2.20;;;;;;;;;;5014053;28;20050;-81
2023/05/08 11:19:57;;;;;;;5.82;4.07;;;;;;;;;;5013820;28;20042;-81
2023/05/08 11:22:46;;;;;;;8.27;6.15;;;;;;;;;;5012831;28;20042;-81
2023/05/08 11:25:42;;;;;;;8.43;4.93;;;;;;;;;;5013766;28;20057;-82
2023/05/08 11:29:16;;;;;;;8.52;5.80;;;;;;;;;;5014040;28;20403;-86
2023/05/08 11:32:02;;;;;;;6.30;5.20;;;;;;;;;;5013732;28;20038;-82
2023/05/08 11:34:48;;;;;;;3.90;2.50;;;;;;;;;;5013613;28;20050;-84
2023/05/08 11:37:35;;;;;;;3.00;2.58;;;;;;;;;;5005734;28;20046;-83
2023/05/08 11:40:54;;;;;;;3.53;2.67;;;;;;;;;;5013635;28;20408;-84
2023/05/08 11:43:43;;;;;;;6.18;3.50;;;;;;;;;;5013464;28;20046;-83
2023/05/08 11:46:40;;;;;;;5.55;3.08;;;;;;;;;;5013362;28;20435;-85
2023/05/08 11:49:25;;;;;;;3.65;3.03;;;;;;;;;;5004444;28;20046;-84
2023/05/08 11:52:11;;;;;;;3.35;2.78;;;;;;;;;;5018770;28;20049;-84
2023/05/08 11:55:00;;;;;;;3.38;2.70;;;;;;;;;;5018916;28;20046;-83
2023/05/08 11:57:46;;;;;;;6.60;3.60;;;;;;;;;;5012275;28;20050;-83
2023/05/08 12:00:31;;;;;;;3.83;2.80;;;;;;;;;;5013304;28;20054;-82
2023/05/08 12:03:19;;;;;;;4.40;3.05;;;;;;;;;;5013229;28;20046;-83
2023/05/08 12:06:05;;;;;;;4.03;2.67;;;;;;;;;;5019172;28;20480;-83
2023/05/08 12:08:50;;;;;;;4.75;4.10;;;;;;;;;;5005018;28;20034;-81
2023/05/08 12:11:35;;;;;;;9.55;4.00;;;;;;;;;;5013219;28;20042;-84
2023/05/08 12:14:22;;;;;;;5.75;3.70;;;;;;;;;;5013437;28;20042;-82
2023/05/08 12:17:07;;;;;;;5.40;4.03;;;;;;;;;;5013275;28;20396;-85
2023/05/08 12:19:55;;;;;;;5.82;3.92;;;;;;;;;;5014629;28;20042;-80
2023/05/08 12:22:52;;;;;;;9.15;4.10;;;;;;;;;;5021445;28;20037;-79
2023/05/08 12:25:39;;;;;;;4.50;3.15;;;;;;;;;;5015881;28;20046;-78
2023/05/08 12:28:24;;;;;;;6.30;4.25;;;;;;;;;;5016746;28;20053;-81
2023/05/08 12:31:11;;;;;;;9.10;5.80;;;;;;;;;;5015426;28;20531;-81
2023/05/08 12:33:57;;;;;;;4.10;2.72;;;;;;;;;;5020275;28;20046;-80
2023/05/08 12:36:43;;;;;;;6.03;4.95;;;;;;;;;;5015529;28;20038;-80
2023/05/08 12:39:34;;;;;;;2.85;2.40;;;;;;;;;;5014905;28;20050;-82
2023/05/08 12:42:20;;;;;;;6.72;4.70;;;;;;;;;;5015850;28;20053;-83
2023/05/08 12:45:07;;;;;;;10.75;5.25;;;;;;;;;;5016444;28;20050;-81
2023/05/08 12:47:57;;;;;;;11.35;6.70;;;;;;;;;;5015531;28;20042;-81
2023/05/08 12:50:45;;;;;;;8.43;6.28;;;;;;;;;;5016318;28;20053;-80
2023/05/08 12:53:32;;;;;;;8.60;5.72;;;;;;;;;;5016913;28;20042;-80
2023/05/08 12:56:21;;;;;;;4.90;3.80;;;;;;;;;;5015949;28;20045;-79
2023/05/08 12:59:06;;;;;;;4.53;2.95;;;;;;;;;;5016269;28;20484;-79
2023/05/08 13:01:52;;;;;;;5.35;3.50;;;;;;;;;;5016194;28;20038;-80
2023/05/08 13:04:38;;;;;;;6.35;4.45;;;;;;;;;;5016036;28;20046;-79
2023/05/08 13:07:23;;;;;;;8.48;5.10;;;;;;;;;;5016335;28;20054;-80
2023/05/08 13:10:09;;;;;;;5.70;3.85;;;;;;;;;;5016561;28;20045;-79
2023/05/08 13:12:54;;;;;;;4.03;3.22;;;;;;;;;;5016135;28;20400;-79
2023/05/08 13:15:40;;;;;;;5.53;3.05;;;;;;;;;;5015583;28;20042;-80
2023/05/08 13:18:26;;;;;;;4.72;3.65;;;;;;;;;;5016306;28;20042;-80
2023/05/08 13:21:11;;;;;;;8.13;2.70;;;;;;;;;;5015896;28;20038;-79
2023/05/08 13:23:56;;;;;;;5.93;2.50;;;;;;;;;;5015847;28;20046;-82
2023/05/08 13:26:42;;;;;;;3.92;2.30;;;;;;;;;;5015527;28;20053;-80
2023/05/08 13:29:28;;;;;;;3.65;2.38;;;;;;;;;;5015730;28;20400;-81
2023/05/08 13:32:14;;;;;;;5.05;3.15;;;;;;;;;;5014633;28;20045;-81
2023/05/08 13:34:59;;;;;;;4.45;3.85;;;;;;;;;;5015529;28;20042;-84
2023/05/08 13:37:46;;;;;;;2.90;2.15;;;;;;;;;;5015497;28;20050;-79
2023/05/08 13:40:31;;;;;;;2.70;1.80;;;;;;;;;;5015651;28;20037;-81
2023/05/08 13:43:17;;;;;;;2.45;1.75;;;;;;;;;;5015734;28;20046;-84
2023/05/08 13:46:03;;;;;;;8.15;3.60;;;;;;;;;;5014361;28;20356;-82
2023/05/08 13:48:48;;;;;;;2.20;1.95;;;;;;;;;;5015121;28;20046;-84
2023/05/08 13:51:34;;;;;;;2.97;2.50;;;;;;;;;;5015184;28;20046;-81
2023/05/08 13:54:19;;;;;;;3.95;2.75;;;;;;;;;;5015281;28;20049;-82
2023/05/08 13:57:05;;;;;;;4.82;2.90;;;;;;;;;;5015146;28;20038;-81
2023/05/08 13:59:50;;;;;;;4.97;3.67;;;;;;;;;;5021610;28;20045;-81
2023/05/08 14:02:36;;;;;;;5.35;3.65;;;;;;;;;;5015058;28;20041;-80
2023/05/08 14:05:22;;;;;;;5.05;3.70;;;;;;;;;;5015055;28;20049;-79
2023/05/08 14:08:07;;;;;;;6.72;3.85;;;;;;;;;;5015268;28;20046;-80
2023/05/08 14:10:53;;;;;;;4.28;3.55;;;;;;;;;;5014636;28;20049;-78
2023/05/08 14:13:38;;;;;;;3.53;3.00;;;;;;;;;;5014245;28;20046;-77
2023/05/08 14:16:24;;;;;;;2.92;2.53;;;;;;;;;;5014299;28;20046;-77
2023/05/08 14:19:09;;;;;;;7.35;5.25;;;;;;;;;;5014466;28;20046;-77
2023/05/08 14:21:55;;;;;;;5.72;3.70;;;;;;;;;;5014788;28;20495;-77
2023/05/08 14:24:43;;;;;;;7.72;3.65;;;;;;;;;;5020398;28;20050;-78
2023/05/08 14:27:28;;;;;;;11.15;6.97;;;;;;;;;;5014742;28;20042;-78
2023/05/08 14:30:14;;;;;;;13.70;7.57;;;;;;;;;;5014012;28;20046;-79
2023/05/08 14:32:59;;;;;;;7.32;4.22;;;;;;;;;;5014315;28;20049;-76
2023/05/08 14:35:47;;;;;;;7.97;5.03;;;;;;;;;;5013933;28;20046;-77
2023/05/08 14:38:31;;;;;;;6.30;4.22;;;;;;;;;;5014393;28;20046;-78
2023/05/08 14:41:16;;;;;;;8.68;5.60;;;;;;;;;;5014193;28;20424;-79
2023/05/08 14:44:02;;;;;;;7.20;4.53;;;;;;;;;;5014017;28;20053;-79
2023/05/08 14:46:47;;;;;;;8.85;4.88;;;;;;;;;;5013982;28;20408;-78
2023/05/08 14:49:33;;;;;;;7.82;4.63;;;;;;;;;;5013986;28;20042;-78
2023/05/08 14:52:18;;;;;;;9.93;5.68;;;;;;;;;;5013686;28;20042;-78
2023/05/08 14:55:04;;;;;;;6.32;4.20;;;;;;;;;;5014166;28;20046;-79
2023/05/08 14:57:50;;;;;;;14.95;8.60;;;;;;;;;;5014532;28;20050;-78
2023/05/08 15:00:35;;;;;;;10.23;6.35;;;;;;;;;;5019109;28;20472;-79
2023/05/08 15:03:21;;;;;;;11.40;6.65;;;;;;;;;;5013450;28;20392;-78
2023/05/08 15:06:06;;;;;;;5.07;3.45;;;;;;;;;;5013927;28;20038;-80
2023/05/08 15:08:53;;;;;;;10.65;6.80;;;;;;;;;;5013918;28;20045;-79
2023/05/08 15:11:39;;;;;;;14.55;8.60;;;;;;;;;;5013657;28;20042;-78
2023/05/08 15:14:25;;;;;;;24.50;9.80;;;;;;;;;;5013924;28;20046;-79
2023/05/08 15:17:11;;;;;;;14.13;8.23;;;;;;;;;;5014268;28;20050;-80
2023/05/08 15:19:57;;;;;;;14.48;9.48;;;;;;;;;;5013567;28;20388;-77
2023/05/08 15:22:42;;;;;;;34.60;18.10;;;;;;;;;;5013796;28;20042;-78
2023/05/08 15:25:33;;;;;;;21.98;14.05;;;;;;;;;;5014063;28;20404;-78
2023/05/08 15:28:19;;;;;;;12.30;7.65;;;;;;;;;;5014131;28;20199;-77
2023/05/08 15:31:05;;;;;;;13.77;8.35;;;;;;;;;;5014134;28;20054;-80
2023/05/08 15:33:50;;;;;;;7.97;4.85;;;;;;;;;;5013636;28;20054;-79
2023/05/08 15:36:36;;;;;;;16.30;9.02;;;;;;;;;;5013463;28;20042;-82
2023/05/08 15:39:21;;;;;;;16.90;11.55;;;;;;;;;;5013836;28;20054;-75
2023/05/08 15:42:06;;;;;;;17.02;11.52;;;;;;;;;;5013671;28;20042;-73
2023/05/08 15:44:56;;;;;;;21.25;11.98;;;;;;;;;;5012904;28;20042;-73
2023/05/08 15:47:41;;;;;;;16.77;10.43;;;;;;;;;;5012490;28;20391;-77
2023/05/08 15:50:27;;;;;;;14.10;9.43;;;;;;;;;;5012109;28;20046;-72
2023/05/08 15:53:12;;;;;;;14.68;9.48;;;;;;;;;;5013195;28;20049;-74
2023/05/08 15:55:58;;;;;;;20.25;9.32;;;;;;;;;;5023256;28;20037;-73
2023/05/08 15:58:43;;;;;;;15.82;8.85;;;;;;;;;;5016219;28;20053;-73
2023/05/08 16:01:29;;;;;;;12.75;8.65;;;;;;;;;;5022326;28;20050;-74
2023/05/08 16:04:15;;;;;;;27.65;15.18;;;;;;;;;;5016565;28;20050;-73
2023/05/08 16:07:01;;;;;;;23.85;14.35;;;;;;;;;;5016219;28;20061;-73
2023/05/08 16:09:47;;;;;;;25.65;15.20;;;;;;;;;;5016116;28;20407;-74
2023/05/08 16:12:32;;;;;;;28.33;16.83;;;;;;;;;;5016903;28;20041;-73
2023/05/08 16:15:18;;;;;;;30.30;15.43;;;;;;;;;;5016536;28;20045;-73
2023/05/08 16:18:04;;;;;;;25.63;13.52;;;;;;;;;;5016949;28;20042;-73
2023/05/08 16:20:50;;;;;;;16.48;10.82;;;;;;;;;;5016666;28;20464;-76
2023/05/08 16:23:36;;;;;;;19.85;12.77;;;;;;;;;;5015321;28;20045;-75
2023/05/08 16:26:22;;;;;;;17.35;11.60;;;;;;;;;;5016519;28;20038;-79
2023/05/08 16:29:07;;;;;;;23.02;14.32;;;;;;;;;;5016706;28;20038;-80
2023/05/08 16:31:52;;;;;;;21.73;14.00;;;;;;;;;;5016724;28;20396;-79
2023/05/08 16:34:38;;;;;;;20.92;13.65;;;;;;;;;;5022014;28;20042;-79
2023/05/08 16:37:24;;;;;;;20.13;13.98;;;;;;;;;;5008255;28;20037;-78